createdAt,value
2018-06-22T00:00:07.330Z,15.80
2018-06-22T00:02:35.799Z,15.80
2018-06-22T00:05:04.358Z,15.70
2018-06-22T00:07:32.790Z,15.70
2018-06-22T00:10:01.288Z,15.70
2018-06-22T00:12:29.707Z,15.70
2018-06-22T00:14:58.178Z,15.70
2018-06-22T00:17:26.636Z,15.60
2018-06-22T00:19:55.099Z,15.60
2018-06-22T00:24:51.772Z,15.60
2018-06-22T00:27:20.246Z,15.50
2018-06-22T00:29:48.688Z,15.50
2018-06-22T00:32:17.138Z,15.50
2018-06-22T00:34:45.583Z,15.40
2018-06-22T00:37:14.074Z,15.40
2018-06-22T00:39:42.514Z,15.40
2018-06-22T00:42:11.003Z,15.30
2018-06-22T00:44:39.456Z,15.30
2018-06-22T00:47:07.886Z,15.30
2018-06-22T00:49:36.362Z,15.20
2018-06-22T00:52:04.830Z,15.20
2018-06-22T00:54:33.266Z,15.20
2018-06-22T00:57:01.723Z,15.10
2018-06-22T00:59:30.179Z,15.10
2018-06-22T01:01:58.611Z,15.10
2018-06-22T01:04:27.038Z,15.00
2018-06-22T01:06:55.477Z,15.00
2018-06-22T01:09:23.932Z,15.00
2018-06-22T01:11:52.594Z,15.00
2018-06-22T01:16:49.335Z,15.00
2018-06-22T01:19:17.819Z,14.90
2018-06-22T01:21:47.210Z,14.90
2018-06-22T01:24:15.710Z,14.90
2018-06-22T01:26:44.170Z,14.90
2018-06-22T01:29:17.980Z,14.80
2018-06-22T01:31:46.600Z,14.80
2018-06-22T01:34:15.090Z,14.80
2018-06-22T01:36:43.603Z,14.70
2018-06-22T01:39:12.190Z,14.70
2018-06-22T01:41:40.729Z,14.70
2018-06-22T01:44:09.310Z,14.70
2018-06-22T01:46:37.763Z,14.60
2018-06-22T01:49:06.294Z,14.50
2018-06-22T01:51:34.793Z,14.50
2018-06-22T01:54:03.650Z,14.50
2018-06-22T01:56:32.235Z,14.50
2018-06-22T01:59:00.841Z,14.50
2018-06-22T02:01:29.311Z,14.50
2018-06-22T02:03:57.842Z,14.50
2018-06-22T02:06:26.262Z,14.40
2018-06-22T02:08:54.694Z,14.40
2018-06-22T02:11:23.239Z,14.40
2018-06-22T02:13:51.825Z,14.40
2018-06-22T02:16:20.268Z,14.40
2018-06-22T02:18:48.886Z,14.40
2018-06-22T02:21:17.394Z,14.30
2018-06-22T02:23:45.854Z,14.30
2018-06-22T02:26:14.319Z,14.30
2018-06-22T02:28:42.787Z,14.20
2018-06-22T02:31:11.585Z,14.20
2018-06-22T02:33:40.023Z,14.20
2018-06-22T02:36:08.510Z,14.20
2018-06-22T02:38:36.982Z,14.20
2018-06-22T02:41:06.431Z,14.10
2018-06-22T02:43:35.577Z,14.10
2018-06-22T02:46:04.691Z,14.00
2018-06-22T02:48:33.282Z,14.00
2018-06-22T02:51:01.762Z,14.00
2018-06-22T02:53:30.212Z,14.00
2018-06-22T02:55:58.703Z,14.00
2018-06-22T02:58:27.234Z,14.00
2018-06-22T03:00:55.739Z,14.00
2018-06-22T03:03:24.223Z,14.00
2018-06-22T03:05:52.701Z,13.80
2018-06-22T03:08:21.134Z,13.70
2018-06-22T03:10:49.585Z,13.80
2018-06-22T03:13:18.106Z,13.80
2018-06-22T03:15:46.542Z,13.80
2018-06-22T03:18:14.982Z,13.80
2018-06-22T03:20:43.534Z,13.90
2018-06-22T03:23:12.099Z,13.90
2018-06-22T03:25:40.570Z,13.70
2018-06-22T03:28:09.049Z,13.80
2018-06-22T03:30:37.526Z,13.70
2018-06-22T03:33:06.106Z,13.60
2018-06-22T03:35:34.575Z,13.60
2018-06-22T03:40:31.292Z,13.60
2018-06-22T03:42:59.754Z,13.60
2018-06-22T03:45:28.298Z,13.60
2018-06-22T03:47:56.820Z,13.60
2018-06-22T03:50:25.330Z,13.60
2018-06-22T03:52:53.767Z,13.60
2018-06-22T03:55:22.570Z,13.70
2018-06-22T03:57:51.003Z,13.70
2018-06-22T04:00:19.447Z,13.80
2018-06-22T04:02:47.890Z,13.80
2018-06-22T04:05:16.402Z,13.80
2018-06-22T04:07:44.845Z,13.80
2018-06-22T04:10:13.375Z,14.00
2018-06-22T04:12:41.831Z,13.90
2018-06-22T04:15:10.310Z,13.80
2018-06-22T04:17:43.959Z,13.80
2018-06-22T04:20:12.410Z,13.70
2018-06-22T04:22:40.853Z,13.70
2018-06-22T04:25:09.326Z,13.70
2018-06-22T04:27:37.774Z,13.60
2018-06-22T04:30:06.298Z,13.60
2018-06-22T04:32:34.822Z,13.50
2018-06-22T04:35:03.306Z,13.60
2018-06-22T04:37:31.850Z,13.60
2018-06-22T04:40:00.282Z,13.60
2018-06-22T04:42:28.731Z,13.70
2018-06-22T04:44:58.195Z,13.80
2018-06-22T04:47:26.839Z,13.80
2018-06-22T04:49:55.374Z,13.70
2018-06-22T04:52:23.877Z,13.70
2018-06-22T04:54:52.488Z,13.80
2018-06-22T04:57:20.989Z,13.80
2018-06-22T04:59:49.563Z,13.90
2018-06-22T05:02:18.010Z,13.90
2018-06-22T05:04:46.475Z,13.90
2018-06-22T05:07:14.990Z,13.90
2018-06-22T05:09:43.456Z,14.00
2018-06-22T05:12:11.914Z,14.00
2018-06-22T05:14:40.422Z,14.20
2018-06-22T05:17:08.937Z,14.30
2018-06-22T05:19:37.438Z,14.30
2018-06-22T05:22:06.396Z,14.30
2018-06-22T05:24:35.282Z,14.50
2018-06-22T05:27:04.099Z,14.50
2018-06-22T05:29:32.582Z,14.60
2018-06-22T05:32:01.062Z,14.60
2018-06-22T05:34:29.486Z,14.60
2018-06-22T05:36:57.990Z,14.60
2018-06-22T05:39:26.475Z,14.70
2018-06-22T05:41:54.910Z,14.80
2018-06-22T05:44:23.351Z,14.90
2018-06-22T05:46:52.876Z,14.90
2018-06-22T05:49:21.323Z,14.90
2018-06-22T05:51:49.794Z,14.80
2018-06-22T05:54:18.256Z,14.80
2018-06-22T05:56:46.730Z,14.70
2018-06-22T05:59:15.158Z,14.80
2018-06-22T06:01:43.594Z,15.00
2018-06-22T06:04:12.062Z,15.00
2018-06-22T06:06:40.590Z,15.10
2018-06-22T06:09:10.178Z,15.10
2018-06-22T06:11:38.614Z,15.20
2018-06-22T06:14:07.209Z,15.20
2018-06-22T06:16:35.694Z,15.30
2018-06-22T06:19:04.434Z,15.20
2018-06-22T06:21:32.921Z,15.30
2018-06-22T06:24:01.406Z,15.50
2018-06-22T06:26:29.977Z,15.60
2018-06-22T06:28:58.622Z,15.60
2018-06-22T06:31:27.059Z,15.70
2018-06-22T06:33:55.609Z,15.80
2018-06-22T06:36:24.158Z,15.80
2018-06-22T06:38:52.678Z,15.70
2018-06-22T06:41:21.234Z,15.80
2018-06-22T06:43:49.671Z,15.80
2018-06-22T06:46:18.131Z,15.80
2018-06-22T06:48:46.602Z,15.80
2018-06-22T06:51:15.044Z,15.90
2018-06-22T06:53:43.492Z,15.90
2018-06-22T06:56:11.963Z,16.00
2018-06-22T06:58:40.394Z,16.10
2018-06-22T07:01:08.820Z,16.20
2018-06-22T07:03:37.258Z,16.40
2018-06-22T07:06:05.838Z,16.60
2018-06-22T07:08:34.480Z,16.80
2018-06-22T07:11:03.013Z,16.70
2018-06-22T07:13:31.482Z,16.90
2018-06-22T07:16:00.033Z,16.80
2018-06-22T07:18:28.638Z,16.90
2018-06-22T07:20:57.170Z,17.10
2018-06-22T07:23:25.777Z,17.30
2018-06-22T07:25:54.320Z,17.30
2018-06-22T07:28:22.815Z,17.30
2018-06-22T07:30:51.427Z,17.20
2018-06-22T07:33:19.914Z,17.40
2018-06-22T07:35:48.568Z,17.50
2018-06-22T07:38:17.182Z,17.70
2018-06-22T07:40:45.678Z,17.60
2018-06-22T07:43:14.219Z,17.70
2018-06-22T07:45:44.631Z,17.50
2018-06-22T07:48:13.111Z,17.40
2018-06-22T07:50:41.682Z,17.50
2018-06-22T07:53:10.298Z,17.40
2018-06-22T07:55:38.838Z,17.60
2018-06-22T07:58:07.691Z,17.30
2018-06-22T08:00:36.190Z,17.50
2018-06-22T08:03:04.704Z,17.80
2018-06-22T08:05:33.338Z,17.90
2018-06-22T08:08:01.838Z,17.70
2018-06-22T08:10:30.327Z,17.70
2018-06-22T08:12:58.798Z,17.90
2018-06-22T08:15:27.277Z,18.20
2018-06-22T08:17:55.913Z,18.10
2018-06-22T08:20:24.723Z,17.90
2018-06-22T08:22:53.715Z,18.20
2018-06-22T08:25:22.258Z,18.50
2018-06-22T08:27:51.138Z,18.70
2018-06-22T08:30:19.714Z,18.50
2018-06-22T08:32:48.275Z,18.60
2018-06-22T08:35:16.786Z,18.70
2018-06-22T08:37:45.459Z,18.80
2018-06-22T08:40:14.091Z,19.10
2018-06-22T08:42:43.237Z,19.20
2018-06-22T08:45:11.769Z,19.10
2018-06-22T08:47:40.334Z,18.90
2018-06-22T08:50:08.929Z,18.70
2018-06-22T08:52:37.500Z,18.80
2018-06-22T08:55:06.015Z,18.90
2018-06-22T08:57:34.526Z,19.20
2018-06-22T09:00:03.082Z,19.20
2018-06-22T09:02:31.598Z,19.10
2018-06-22T09:05:00.136Z,19.10
2018-06-22T09:07:29.561Z,19.10
2018-06-22T09:09:58.120Z,19.10
2018-06-22T09:12:27.252Z,19.30
2018-06-22T09:14:55.823Z,19.00
2018-06-22T09:19:53.638Z,19.40
2018-06-22T09:22:22.186Z,19.40
2018-06-22T09:24:50.716Z,19.40
2018-06-22T09:27:19.298Z,19.30
2018-06-22T09:29:48.088Z,19.20
2018-06-22T09:32:17.342Z,19.10
2018-06-22T09:34:45.879Z,19.30
2018-06-22T09:37:14.395Z,19.20
2018-06-22T09:39:42.951Z,19.10
2018-06-22T09:42:11.511Z,19.20
2018-06-22T09:44:40.642Z,19.40
2018-06-22T09:47:09.679Z,19.50
2018-06-22T09:49:38.261Z,19.80
2018-06-22T09:52:06.874Z,19.70
2018-06-22T09:54:35.384Z,19.60
2018-06-22T09:57:03.939Z,19.50
2018-06-22T09:59:32.459Z,19.50
2018-06-22T10:02:00.987Z,19.50
2018-06-22T10:04:29.543Z,19.70
2018-06-22T10:06:58.005Z,19.60
2018-06-22T10:09:26.826Z,19.70
2018-06-22T10:11:55.447Z,19.90
2018-06-22T10:14:23.983Z,19.90
2018-06-22T10:16:52.449Z,19.90
2018-06-22T10:19:20.910Z,19.70
2018-06-22T10:21:49.455Z,19.50
2018-06-22T10:24:17.920Z,19.60
2018-06-22T10:26:46.441Z,19.70
2018-06-22T10:29:14.950Z,19.80
2018-06-22T10:31:43.511Z,19.90
2018-06-22T10:34:12.043Z,19.80
2018-06-22T10:36:40.518Z,20.00
2018-06-22T10:39:11.670Z,19.80
2018-06-22T10:41:40.329Z,19.80
2018-06-22T10:44:09.539Z,19.90
2018-06-22T10:46:38.250Z,20.00
2018-06-22T10:49:06.907Z,20.00
2018-06-22T10:51:35.392Z,20.20
2018-06-22T10:54:03.934Z,20.40
2018-06-22T10:56:32.576Z,20.30
2018-06-22T10:59:01.087Z,20.40
2018-06-22T11:01:30.386Z,20.40
2018-06-22T11:03:58.890Z,20.50
2018-06-22T11:06:27.380Z,20.60
2018-06-22T11:08:56.270Z,20.60
2018-06-22T11:28:34.288Z,20.90
2018-06-22T11:31:02.933Z,20.80
2018-06-22T11:33:31.590Z,20.80
2018-06-22T11:38:28.512Z,20.40
2018-06-22T11:40:57.002Z,20.50
2018-06-22T11:43:25.563Z,20.50
2018-06-22T11:45:54.126Z,20.50
2018-06-22T11:48:22.575Z,20.10
2018-06-22T11:50:51.094Z,19.80
2018-06-22T11:53:19.567Z,20.00
2018-06-22T11:55:48.100Z,20.20
2018-06-22T11:58:16.546Z,20.20
2018-06-22T12:00:45.051Z,20.30
2018-06-22T12:03:13.549Z,20.20
2018-06-22T12:05:42.085Z,20.40
2018-06-22T12:08:10.587Z,20.40
2018-06-22T12:10:39.118Z,20.50
2018-06-22T12:13:07.721Z,20.60
2018-06-22T12:15:36.188Z,20.60
2018-06-22T12:18:04.858Z,20.60
2018-06-22T12:20:33.373Z,20.90
2018-06-22T12:23:01.838Z,20.80
2018-06-22T12:25:30.498Z,20.60
2018-06-22T12:27:59.094Z,20.70
2018-06-22T12:30:28.432Z,20.80
2018-06-22T12:32:56.938Z,20.80
2018-06-22T12:35:25.434Z,20.90
2018-06-22T12:37:53.974Z,21.10
2018-06-22T12:40:22.503Z,21.00
2018-06-22T12:42:51.057Z,20.90
2018-06-22T12:45:19.661Z,21.00
2018-06-22T12:47:48.210Z,21.10
2018-06-22T12:50:16.671Z,21.20
2018-06-22T12:52:45.181Z,21.30
2018-06-22T12:55:13.693Z,21.50
2018-06-22T12:57:42.198Z,21.60
2018-06-22T13:00:10.688Z,21.40
2018-06-22T13:02:39.290Z,21.40
2018-06-22T13:05:08.407Z,20.90
2018-06-22T13:07:36.880Z,21.00
2018-06-22T13:10:05.568Z,21.20
2018-06-22T13:12:34.062Z,20.90
2018-06-22T13:15:03.414Z,20.80
2018-06-22T13:17:31.879Z,20.80
2018-06-22T13:20:00.535Z,20.50
2018-06-22T13:22:29.049Z,20.50
2018-06-22T13:24:57.531Z,20.30
2018-06-22T13:27:26.004Z,20.20
2018-06-22T13:29:54.467Z,20.20
2018-06-22T13:32:23.021Z,20.20
2018-06-22T13:34:51.555Z,20.20
2018-06-22T13:37:20.129Z,20.00
2018-06-22T13:39:48.620Z,20.00
2018-06-22T13:42:17.164Z,19.90
2018-06-22T13:44:45.704Z,19.70
2018-06-22T13:47:14.243Z,19.60
2018-06-22T13:49:42.747Z,19.50
2018-06-22T13:52:11.335Z,19.70
2018-06-22T13:54:39.894Z,19.80
2018-06-22T13:57:08.593Z,19.90
2018-06-22T13:59:37.159Z,19.80
2018-06-22T14:02:05.836Z,19.80
2018-06-22T14:04:39.651Z,19.90
2018-06-22T14:07:08.440Z,20.00
2018-06-22T14:09:37.086Z,20.00
2018-06-22T14:12:05.740Z,19.90
2018-06-22T14:14:34.304Z,19.70
2018-06-22T14:17:02.834Z,19.60
2018-06-22T14:19:32.218Z,19.50
2018-06-22T14:22:00.774Z,19.50
2018-06-22T14:24:29.258Z,19.50
2018-06-22T14:26:57.810Z,19.50
2018-06-22T14:29:26.307Z,19.60
2018-06-22T14:31:54.815Z,19.50
2018-06-22T14:34:23.295Z,19.50
2018-06-22T14:36:51.795Z,19.50
2018-06-22T14:39:20.282Z,19.60
2018-06-22T14:41:48.778Z,19.50
2018-06-22T14:44:17.259Z,19.40
2018-06-22T14:46:45.835Z,19.50
2018-06-22T14:49:14.334Z,19.50
2018-06-22T14:51:42.862Z,19.60
2018-06-22T14:54:16.503Z,19.60
2018-06-22T14:56:50.209Z,19.60
2018-06-22T14:59:23.925Z,19.50
2018-06-22T15:01:57.740Z,19.40
2018-06-22T15:04:31.433Z,19.50
2018-06-22T15:07:05.325Z,19.40
2018-06-22T15:09:33.954Z,19.30
2018-06-22T15:12:02.407Z,19.50
2018-06-22T15:14:30.903Z,19.70
2018-06-22T15:16:59.381Z,19.90
2018-06-22T15:19:27.821Z,20.00
2018-06-22T15:21:56.327Z,20.00
2018-06-22T15:24:25.114Z,20.00
2018-06-22T15:26:53.582Z,20.00
2018-06-22T15:29:22.074Z,20.00
2018-06-22T15:31:50.607Z,20.10
2018-06-22T15:34:24.438Z,19.90
2018-06-22T15:36:58.285Z,19.60
2018-06-22T15:39:32.117Z,19.40
2018-06-22T15:42:05.860Z,19.30
2018-06-22T15:44:39.458Z,19.20
2018-06-22T15:47:13.283Z,19.10
2018-06-22T15:49:47.104Z,18.90
2018-06-22T15:52:20.780Z,18.60
2018-06-22T15:54:54.526Z,18.40
2018-06-22T15:57:23.095Z,18.30
2018-06-22T15:59:51.759Z,18.40
2018-06-22T16:02:25.271Z,18.20
2018-06-22T16:04:53.758Z,18.20
2018-06-22T16:07:22.392Z,18.20
2018-06-22T16:09:56.271Z,18.10
2018-06-22T16:12:30.209Z,18.00
2018-06-22T16:15:03.975Z,17.90
2018-06-22T16:17:37.755Z,18.10
2018-06-22T16:20:11.574Z,18.10
2018-06-22T16:22:45.400Z,18.00
2018-06-22T16:25:19.147Z,18.00
2018-06-22T16:27:52.031Z,17.90
2018-06-22T16:30:20.549Z,17.90
2018-06-22T16:32:49.083Z,17.80
2018-06-22T16:35:17.578Z,17.80
2018-06-22T16:37:46.019Z,17.80
2018-06-22T16:40:14.636Z,17.70
2018-06-22T16:42:43.086Z,17.80
2018-06-22T16:45:11.554Z,17.70
2018-06-22T16:47:40.004Z,17.70
2018-06-22T16:50:09.435Z,17.80
2018-06-22T16:52:38.590Z,17.80
2018-06-22T16:55:07.334Z,17.80
2018-06-22T16:57:35.885Z,17.80
2018-06-22T17:00:05.588Z,17.70
2018-06-22T17:02:34.118Z,17.70
2018-06-22T17:05:02.616Z,17.70
2018-06-22T17:07:36.402Z,17.70
2018-06-22T17:10:10.336Z,17.60
2018-06-22T17:12:44.135Z,17.50
2018-06-22T17:15:18.051Z,17.40
2018-06-22T17:17:51.895Z,17.40
2018-06-22T17:20:20.430Z,17.30
2018-06-22T17:22:48.902Z,17.20
2018-06-22T17:25:17.367Z,17.10
2018-06-22T17:27:45.874Z,17.10
2018-06-22T17:30:14.445Z,17.10
2018-06-22T17:32:42.922Z,17.00
2018-06-22T17:35:11.438Z,16.90
2018-06-22T17:37:39.926Z,16.90
2018-06-22T17:40:08.375Z,16.80
2018-06-22T17:42:37.174Z,16.80
2018-06-22T17:45:05.697Z,16.80
2018-06-22T17:47:34.174Z,16.80
2018-06-22T17:50:06.940Z,16.90
2018-06-22T17:52:35.388Z,16.90
2018-06-22T17:55:03.994Z,16.90
2018-06-22T17:57:32.490Z,16.90
2018-06-22T18:00:06.234Z,16.90
2018-06-22T18:02:39.808Z,17.00
2018-06-22T18:05:13.426Z,16.90
2018-06-22T18:07:42.299Z,16.90
2018-06-22T18:10:16.068Z,16.90
2018-06-22T18:12:51.561Z,16.90
2018-06-22T18:15:20.334Z,16.90
2018-06-22T18:17:48.882Z,16.80
2018-06-22T18:20:17.563Z,16.80
2018-06-22T18:22:46.626Z,16.80
2018-06-22T18:25:15.363Z,16.80
2018-06-22T18:27:44.206Z,16.70
2018-06-22T18:30:13.810Z,16.70
2018-06-22T18:32:42.355Z,16.60
2018-06-22T18:37:40.460Z,16.60
2018-06-22T18:40:09.711Z,16.50
2018-06-22T18:42:38.293Z,16.50
2018-06-22T18:45:08.165Z,16.50
2018-06-22T18:47:36.662Z,16.50
2018-06-22T18:50:05.227Z,16.40
2018-06-22T18:52:39.033Z,16.30
2018-06-22T18:55:13.073Z,16.30
2018-06-22T18:57:46.887Z,16.30
2018-06-22T19:00:20.488Z,16.30
2018-06-22T19:02:54.218Z,16.20
2018-06-22T19:05:22.723Z,16.20
2018-06-22T19:07:51.250Z,16.10
2018-06-22T19:10:19.718Z,16.10
2018-06-22T19:12:48.622Z,16.10
2018-06-22T19:15:17.079Z,16.00
2018-06-22T19:17:45.594Z,16.00
2018-06-22T19:20:14.150Z,16.00
2018-06-22T19:22:42.630Z,16.00
2018-06-22T19:25:11.120Z,15.90
2018-06-22T19:27:39.595Z,15.80
2018-06-22T19:30:08.886Z,15.80
2018-06-22T19:32:37.631Z,15.80
2018-06-22T19:35:12.710Z,15.70
2018-06-22T19:37:42.237Z,15.70
2018-06-22T19:40:10.815Z,15.70
2018-06-22T19:42:39.310Z,15.70
2018-06-22T19:45:13.222Z,15.70
2018-06-22T19:47:47.063Z,15.70
2018-06-22T19:50:20.787Z,15.60
2018-06-22T19:52:54.481Z,15.60
2018-06-22T19:55:22.979Z,15.50
2018-06-22T19:57:51.554Z,15.50
2018-06-22T20:00:20.059Z,15.50
2018-06-22T20:02:48.502Z,15.40
2018-06-22T20:05:16.963Z,15.40
2018-06-22T20:07:46.101Z,15.30
2018-06-22T20:10:14.731Z,15.30
2018-06-22T20:12:43.214Z,15.30
2018-06-22T20:15:11.839Z,15.20
2018-06-22T20:17:40.337Z,15.20
2018-06-22T20:20:08.812Z,15.10
2018-06-22T20:22:37.297Z,15.10
2018-06-22T20:25:11.202Z,15.10
2018-06-22T20:27:39.687Z,15.10
2018-06-22T20:30:08.155Z,15.10
2018-06-22T20:32:36.686Z,15.10
2018-06-22T20:35:10.763Z,15.10
2018-06-22T20:37:44.542Z,15.00
2018-06-22T20:40:18.306Z,15.00
2018-06-22T20:42:52.439Z,14.90
2018-06-22T20:45:26.321Z,14.90
2018-06-22T20:48:00.161Z,14.90
2018-06-22T20:50:33.664Z,14.90
2018-06-22T20:53:03.235Z,14.80
2018-06-22T20:55:32.337Z,14.80
2018-06-22T20:58:00.950Z,14.80
2018-06-22T21:00:29.668Z,14.80
2018-06-22T21:02:58.672Z,14.70
2018-06-22T21:05:27.271Z,14.70
2018-06-22T21:07:56.342Z,14.70
2018-06-22T21:10:25.195Z,14.70
2018-06-22T21:12:53.875Z,14.60
2018-06-22T21:15:22.340Z,14.60
2018-06-22T21:17:50.842Z,14.50
2018-06-22T21:20:19.345Z,14.50
2018-06-22T21:22:47.895Z,14.50
2018-06-22T21:25:16.465Z,14.50
2018-06-22T21:27:50.332Z,14.40
2018-06-22T21:32:28.196Z,14.40
2018-06-22T21:35:02.043Z,14.40
2018-06-22T21:37:35.869Z,14.40
2018-06-22T21:40:04.865Z,14.40
2018-06-22T21:42:33.383Z,14.40
2018-06-22T21:45:01.903Z,14.40
2018-06-22T21:47:30.402Z,14.30
2018-06-22T21:49:58.902Z,14.30
2018-06-22T21:52:27.327Z,14.20
2018-06-22T21:54:55.870Z,14.30
2018-06-22T21:57:24.369Z,14.20
2018-06-22T21:59:52.848Z,14.20
2018-06-22T22:02:21.400Z,14.10
2018-06-22T22:04:49.921Z,14.00
2018-06-22T22:07:18.573Z,14.00
2018-06-22T22:09:47.030Z,13.90
2018-06-22T22:12:15.585Z,13.90
2018-06-22T22:14:44.034Z,13.90
2018-06-22T22:17:12.503Z,13.80
2018-06-22T22:19:41.051Z,13.90
2018-06-22T22:22:09.518Z,13.80
2018-06-22T22:24:38.041Z,13.80
2018-06-22T22:29:50.965Z,13.70
2018-06-22T22:32:19.836Z,13.70
2018-06-22T22:34:51.655Z,13.70
2018-06-22T22:43:27.275Z,13.60
2018-06-22T22:45:55.927Z,13.50
2018-06-22T22:48:24.627Z,13.50
2018-06-22T22:50:53.458Z,13.50
2018-06-22T22:53:22.170Z,13.50
2018-06-22T22:55:50.778Z,13.30
2018-06-22T22:58:19.878Z,13.20
2018-06-22T23:00:48.798Z,13.20
2018-06-22T23:03:24.023Z,12.90
2018-06-22T23:05:55.950Z,12.80
2018-06-22T23:08:29.882Z,12.80
2018-06-22T23:10:59.732Z,12.80
2018-06-22T23:13:30.592Z,12.80
2018-06-22T23:18:27.508Z,12.80
2018-06-22T23:20:56.700Z,12.80
2018-06-22T23:23:30.640Z,12.80
2018-06-22T23:25:59.275Z,12.80
2018-06-22T23:28:27.765Z,12.70
2018-06-22T23:30:56.335Z,12.60
2018-06-22T23:33:24.884Z,12.50
2018-06-22T23:35:53.386Z,12.50
2018-06-22T23:38:21.851Z,12.50
2018-06-22T23:40:50.319Z,12.50
2018-06-22T23:43:18.962Z,12.60
2018-06-22T23:45:47.489Z,12.60
2018-06-22T23:48:16.043Z,12.50
2018-06-22T23:50:44.519Z,12.50
2018-06-22T23:53:12.977Z,12.40
2018-06-22T23:55:41.437Z,12.40
2018-06-22T23:58:09.938Z,12.40
